Webcam

2024/04/21 13:50 EBBR 211350Z 03010KT 9999 SCT040 10/02 Q1025 NOSIG

Webcam

--- Refresh now ---